createdAt,value
2019-03-16T00:00:33.680Z,0.00
2019-03-16T00:01:33.654Z,0.00
2019-03-16T00:02:33.588Z,0.00
2019-03-16T00:03:33.554Z,0.00
2019-03-16T00:04:33.511Z,0.00
2019-03-16T00:05:33.466Z,0.00
2019-03-16T00:06:33.447Z,0.00
2019-03-16T00:07:33.481Z,0.00
2019-03-16T00:08:33.331Z,0.00
2019-03-16T00:09:33.299Z,0.00
2019-03-16T00:10:33.257Z,0.00
2019-03-16T00:11:33.212Z,0.00
2019-03-16T00:12:33.190Z,0.00
2019-03-16T00:13:33.115Z,0.00
2019-03-16T00:14:33.079Z,0.00
2019-03-16T00:15:33.040Z,0.00
2019-03-16T00:16:32.985Z,0.00
2019-03-16T00:17:32.978Z,0.00
2019-03-16T00:18:32.910Z,0.00
2019-03-16T00:19:32.859Z,0.00
2019-03-16T00:20:32.818Z,0.00
2019-03-16T00:21:32.782Z,0.00
2019-03-16T00:22:32.744Z,0.00
2019-03-16T00:23:32.722Z,0.00
2019-03-16T00:24:32.655Z,0.00
2019-03-16T00:25:32.606Z,0.00
2019-03-16T00:26:32.562Z,0.00
2019-03-16T00:27:32.522Z,0.00
2019-03-16T00:28:32.502Z,0.00
2019-03-16T00:29:32.441Z,0.00
2019-03-16T00:30:32.398Z,0.00
2019-03-16T00:31:32.353Z,0.00
2019-03-16T00:32:32.311Z,0.00
2019-03-16T00:33:32.286Z,0.00
2019-03-16T00:34:32.217Z,0.00
2019-03-16T00:35:32.248Z,0.00
2019-03-16T00:36:32.139Z,0.00
2019-03-16T00:37:32.092Z,0.00
2019-03-16T00:38:32.076Z,0.00
2019-03-16T00:39:32.006Z,0.00
2019-03-16T00:40:31.961Z,0.00
2019-03-16T00:41:31.927Z,0.00
2019-03-16T00:42:31.892Z,0.00
2019-03-16T00:43:31.842Z,0.00
2019-03-16T00:44:31.821Z,0.00
2019-03-16T00:45:31.751Z,0.00
2019-03-16T00:46:31.710Z,0.00
2019-03-16T00:47:31.663Z,0.00
2019-03-16T00:48:31.622Z,0.00
2019-03-16T00:49:31.608Z,0.00
2019-03-16T00:50:31.541Z,0.00
2019-03-16T00:51:31.491Z,0.00
2019-03-16T00:52:31.452Z,0.00
2019-03-16T00:53:31.419Z,0.00
2019-03-16T00:54:31.395Z,0.00
2019-03-16T00:55:31.343Z,0.00
2019-03-16T00:56:31.286Z,0.00
2019-03-16T00:57:31.231Z,0.00
2019-03-16T00:58:31.189Z,0.00
2019-03-16T00:59:31.172Z,0.00
2019-03-16T01:00:31.103Z,0.00
2019-03-16T01:01:31.090Z,0.00
2019-03-16T01:02:32.820Z,0.00
2019-03-16T01:03:30.986Z,0.00
2019-03-16T01:04:30.944Z,0.00
2019-03-16T01:05:30.911Z,0.00
2019-03-16T01:06:30.848Z,0.00
2019-03-16T01:07:30.839Z,0.00
2019-03-16T01:08:30.769Z,0.00
2019-03-16T01:09:30.719Z,0.00
2019-03-16T01:10:30.673Z,0.00
2019-03-16T01:11:30.645Z,0.00
2019-03-16T01:12:30.590Z,0.00
2019-03-16T01:13:30.573Z,0.00
2019-03-16T01:14:30.507Z,0.00
2019-03-16T01:15:30.493Z,0.00
2019-03-16T01:16:30.426Z,0.00
2019-03-16T01:17:30.371Z,0.00
2019-03-16T01:18:30.330Z,0.00
2019-03-16T01:19:30.313Z,0.00
2019-03-16T01:20:30.246Z,0.00
2019-03-16T01:21:30.210Z,0.00
2019-03-16T01:22:30.167Z,0.00
2019-03-16T01:23:30.116Z,0.00
2019-03-16T01:24:30.098Z,0.00
2019-03-16T01:25:30.035Z,0.00
2019-03-16T01:26:29.990Z,0.00
2019-03-16T01:27:29.946Z,0.00
2019-03-16T01:28:29.905Z,0.00
2019-03-16T01:29:29.882Z,0.00
2019-03-16T01:30:29.817Z,0.00
2019-03-16T01:31:29.769Z,0.00
2019-03-16T01:32:40.046Z,0.00
2019-03-16T01:33:29.690Z,0.00
2019-03-16T01:34:29.669Z,0.00
2019-03-16T01:35:29.604Z,0.00
2019-03-16T01:36:29.594Z,0.00
2019-03-16T01:37:29.512Z,0.00
2019-03-16T01:38:29.469Z,0.00
2019-03-16T01:39:29.433Z,0.00
2019-03-16T01:40:29.414Z,0.00
2019-03-16T01:41:29.369Z,0.00
2019-03-16T01:42:29.298Z,0.00
2019-03-16T01:43:29.253Z,0.00
2019-03-16T01:44:29.210Z,0.00
2019-03-16T01:45:29.176Z,0.00
2019-03-16T01:46:29.130Z,0.00
2019-03-16T01:47:29.107Z,0.00
2019-03-16T01:48:29.036Z,0.00
2019-03-16T01:49:29.002Z,0.00
2019-03-16T01:50:28.958Z,0.00
2019-03-16T01:51:28.912Z,0.00
2019-03-16T01:52:28.894Z,0.00
2019-03-16T01:53:28.821Z,0.00
2019-03-16T01:54:28.777Z,0.00
2019-03-16T01:55:28.741Z,0.00
2019-03-16T01:56:28.701Z,0.00
2019-03-16T01:57:28.684Z,0.00
2019-03-16T01:58:28.607Z,0.00
2019-03-16T01:59:28.559Z,0.00
2019-03-16T02:00:28.525Z,0.00
2019-03-16T02:01:28.496Z,0.00
2019-03-16T02:02:28.443Z,0.00
2019-03-16T02:03:28.420Z,0.00
2019-03-16T02:04:28.354Z,0.00
2019-03-16T02:05:28.300Z,0.00
2019-03-16T02:06:28.261Z,0.00
2019-03-16T02:07:28.242Z,0.00
2019-03-16T02:08:28.175Z,0.00
2019-03-16T02:09:28.153Z,0.00
2019-03-16T02:10:28.090Z,0.00
2019-03-16T02:11:28.058Z,0.00
2019-03-16T02:12:28.001Z,0.00
2019-03-16T02:13:27.964Z,0.00
2019-03-16T02:14:27.941Z,0.00
2019-03-16T02:15:27.874Z,0.00
2019-03-16T02:16:27.843Z,0.00
2019-03-16T02:17:27.784Z,0.00
2019-03-16T02:18:27.739Z,0.00
2019-03-16T02:19:27.719Z,0.00
2019-03-16T02:20:27.654Z,0.00
2019-03-16T02:21:27.705Z,0.00
2019-03-16T02:22:27.588Z,0.00
2019-03-16T02:23:27.539Z,0.00
2019-03-16T02:24:27.518Z,0.00
2019-03-16T02:25:27.437Z,0.00
2019-03-16T02:26:27.482Z,0.00
2019-03-16T02:27:27.361Z,0.00
2019-03-16T02:28:27.314Z,0.00
2019-03-16T02:29:27.271Z,0.00
2019-03-16T02:30:27.247Z,0.00
2019-03-16T02:31:27.179Z,0.00
2019-03-16T02:32:27.138Z,0.00
2019-03-16T02:33:27.098Z,0.00
2019-03-16T02:34:27.074Z,0.00
2019-03-16T02:35:27.011Z,0.00
2019-03-16T02:36:26.972Z,0.00
2019-03-16T02:37:26.922Z,0.00
2019-03-16T02:38:26.884Z,0.00
2019-03-16T02:39:26.853Z,0.00
2019-03-16T02:40:26.812Z,0.00
2019-03-16T02:41:26.777Z,0.00
2019-03-16T02:42:26.711Z,0.00
2019-03-16T02:43:26.661Z,0.00
2019-03-16T02:44:26.614Z,0.00
2019-03-16T02:45:26.581Z,0.00
2019-03-16T02:46:26.561Z,0.00
2019-03-16T02:47:26.494Z,0.00
2019-03-16T02:48:26.449Z,0.00
2019-03-16T02:49:26.399Z,0.00
2019-03-16T02:50:26.360Z,0.00
2019-03-16T02:51:26.340Z,0.00
2019-03-16T02:52:26.268Z,0.00
2019-03-16T02:53:26.233Z,0.00
2019-03-16T02:54:26.190Z,0.00
2019-03-16T02:55:26.145Z,0.00
2019-03-16T02:56:26.099Z,0.00
2019-03-16T02:57:26.077Z,0.00
2019-03-16T02:58:26.010Z,0.00
2019-03-16T02:59:25.974Z,0.00
2019-03-16T03:00:25.929Z,0.00
2019-03-16T03:01:25.875Z,0.00
2019-03-16T03:02:25.869Z,0.00
2019-03-16T03:03:29.732Z,0.00
2019-03-16T03:04:25.747Z,0.00
2019-03-16T03:05:25.712Z,0.00
2019-03-16T03:06:25.669Z,0.00
2019-03-16T03:07:25.622Z,0.00
2019-03-16T03:08:25.616Z,0.00
2019-03-16T03:09:25.532Z,0.00
2019-03-16T03:10:25.487Z,0.00
2019-03-16T03:11:25.442Z,0.00
2019-03-16T03:12:25.399Z,0.00
2019-03-16T03:13:25.365Z,0.00
2019-03-16T03:14:25.352Z,0.00
2019-03-16T03:15:25.292Z,0.00
2019-03-16T03:16:25.227Z,0.00
2019-03-16T03:17:25.192Z,0.00
2019-03-16T03:18:25.149Z,0.00
2019-03-16T03:19:25.116Z,0.00
2019-03-16T03:20:25.112Z,0.00
2019-03-16T03:21:25.017Z,0.00
2019-03-16T03:22:24.970Z,0.00
2019-03-16T03:23:24.924Z,0.00
2019-03-16T03:24:24.881Z,0.00
2019-03-16T03:25:24.845Z,0.00
2019-03-16T03:26:24.830Z,0.00
2019-03-16T03:27:24.768Z,0.00
2019-03-16T03:28:24.733Z,0.00
2019-03-16T03:29:24.669Z,0.00
2019-03-16T03:30:24.646Z,0.00
2019-03-16T03:31:24.614Z,0.00
2019-03-16T03:32:24.546Z,0.00
2019-03-16T03:33:24.517Z,0.00
2019-03-16T03:34:24.448Z,0.00
2019-03-16T03:35:29.065Z,0.00
2019-03-16T03:36:24.392Z,0.00
2019-03-16T03:37:24.328Z,0.00
2019-03-16T03:38:24.279Z,0.00
2019-03-16T03:39:24.240Z,0.00
2019-03-16T03:40:24.205Z,0.00
2019-03-16T03:41:24.148Z,0.00
2019-03-16T03:42:24.135Z,0.00
2019-03-16T03:43:24.059Z,0.00
2019-03-16T03:44:24.038Z,0.00
2019-03-16T03:45:23.989Z,0.00
2019-03-16T03:46:23.940Z,0.00
2019-03-16T03:47:23.884Z,0.00
2019-03-16T03:48:23.887Z,0.00
2019-03-16T03:49:23.842Z,0.00
2019-03-16T03:50:23.768Z,0.00
2019-03-16T03:51:23.725Z,0.00
2019-03-16T03:52:23.681Z,0.00
2019-03-16T03:53:23.627Z,0.00
2019-03-16T03:54:23.617Z,0.00
2019-03-16T03:55:23.546Z,0.00
2019-03-16T03:56:23.527Z,0.00
2019-03-16T03:57:23.462Z,0.00
2019-03-16T03:58:23.414Z,0.00
2019-03-16T03:59:23.386Z,0.00
2019-03-16T04:00:23.351Z,0.00
2019-03-16T04:01:23.287Z,0.00
2019-03-16T04:02:23.239Z,0.00
2019-03-16T04:03:23.200Z,0.00
2019-03-16T04:04:23.162Z,0.00
2019-03-16T04:05:23.131Z,0.00
2019-03-16T04:06:23.062Z,0.00
2019-03-16T04:07:23.021Z,0.00
2019-03-16T04:08:23.014Z,0.00
2019-03-16T04:09:22.940Z,0.00
2019-03-16T04:10:22.904Z,0.00
2019-03-16T04:11:22.853Z,0.00
2019-03-16T04:12:22.819Z,0.00
2019-03-16T04:13:22.758Z,0.00
2019-03-16T04:14:22.746Z,0.00
2019-03-16T04:15:22.694Z,0.00
2019-03-16T04:16:22.632Z,0.00
2019-03-16T04:17:22.594Z,0.00
2019-03-16T04:18:22.551Z,0.00
2019-03-16T04:19:22.528Z,0.00
2019-03-16T04:20:22.461Z,0.00
2019-03-16T04:21:22.451Z,0.00
2019-03-16T04:22:22.377Z,0.00
2019-03-16T04:23:22.344Z,0.00
2019-03-16T04:24:22.297Z,0.00
2019-03-16T04:25:22.239Z,0.00
2019-03-16T04:26:22.227Z,0.00
2019-03-16T04:27:22.161Z,0.00
2019-03-16T04:28:22.115Z,0.00
2019-03-16T04:29:22.079Z,0.00
2019-03-16T04:30:22.031Z,0.00
2019-03-16T04:31:22.018Z,0.00
2019-03-16T04:32:21.966Z,0.00
2019-03-16T04:33:21.892Z,0.00
2019-03-16T04:34:29.203Z,0.00
2019-03-16T04:35:21.812Z,0.00
2019-03-16T04:36:21.774Z,0.00
2019-03-16T04:37:21.748Z,0.00
2019-03-16T04:38:21.674Z,0.00
2019-03-16T04:39:21.634Z,0.00
2019-03-16T04:40:21.592Z,0.00
2019-03-16T04:41:21.555Z,0.00
2019-03-16T04:42:21.546Z,0.00
2019-03-16T04:43:21.470Z,0.00
2019-03-16T04:44:21.429Z,0.00
2019-03-16T04:45:21.384Z,0.00
2019-03-16T04:46:21.333Z,0.00
2019-03-16T04:47:21.292Z,0.00
2019-03-16T04:48:21.268Z,0.00
2019-03-16T04:49:21.212Z,0.00
2019-03-16T04:50:21.168Z,0.00
2019-03-16T04:51:21.117Z,0.00
2019-03-16T04:52:21.072Z,0.00
2019-03-16T04:53:21.059Z,0.00
2019-03-16T04:54:20.995Z,0.00
2019-03-16T04:55:20.956Z,0.00
2019-03-16T04:56:20.909Z,0.00
2019-03-16T04:57:20.860Z,0.00
2019-03-16T04:58:20.839Z,0.00
2019-03-16T04:59:20.772Z,0.00
2019-03-16T05:00:20.727Z,0.00
2019-03-16T05:01:20.691Z,0.00
2019-03-16T05:02:20.650Z,0.00
2019-03-16T05:03:20.604Z,0.00
2019-03-16T05:04:20.584Z,0.00
2019-03-16T05:05:20.521Z,0.00
2019-03-16T05:06:20.468Z,0.00
2019-03-16T05:07:29.452Z,0.00
2019-03-16T05:08:20.378Z,0.00
2019-03-16T05:09:20.365Z,0.00
2019-03-16T05:10:20.294Z,0.00
2019-03-16T05:11:20.263Z,0.00
2019-03-16T05:12:20.218Z,0.00
2019-03-16T05:13:29.480Z,0.00
2019-03-16T05:14:29.036Z,0.00
2019-03-16T05:15:29.552Z,0.00
2019-03-16T05:16:20.035Z,0.00
2019-03-16T05:17:19.993Z,0.00
2019-03-16T05:18:29.109Z,0.00
2019-03-16T05:19:29.122Z,0.00
2019-03-16T05:20:28.699Z,0.00
2019-03-16T05:21:19.842Z,0.00
2019-03-16T05:22:19.783Z,0.00
2019-03-16T05:23:29.209Z,4.00
2019-03-16T05:24:19.694Z,0.00
2019-03-16T05:25:19.667Z,4.00
2019-03-16T05:26:19.600Z,4.00
2019-03-16T05:27:19.555Z,8.00
2019-03-16T05:28:19.512Z,8.00
2019-03-16T05:29:19.476Z,8.00
2019-03-16T05:30:19.467Z,8.00
2019-03-16T05:31:19.391Z,8.00
2019-03-16T05:32:19.347Z,8.00
2019-03-16T05:33:19.299Z,12.00
2019-03-16T05:34:19.251Z,16.00
2019-03-16T05:35:19.228Z,20.00
2019-03-16T05:36:19.167Z,24.00
2019-03-16T05:37:19.131Z,20.00
2019-03-16T05:38:19.089Z,16.00
2019-03-16T05:39:19.036Z,36.00
2019-03-16T05:40:18.994Z,48.00
2019-03-16T05:41:18.990Z,44.00
2019-03-16T05:42:18.909Z,32.00
2019-03-16T05:43:28.225Z,32.00
2019-03-16T05:44:18.823Z,52.00
2019-03-16T05:45:18.779Z,48.00
2019-03-16T05:46:18.734Z,44.00
2019-03-16T05:47:18.716Z,56.00
2019-03-16T05:48:18.651Z,52.00
2019-03-16T05:49:18.605Z,48.00
2019-03-16T05:50:18.564Z,76.00
2019-03-16T05:51:18.536Z,100.00
2019-03-16T05:52:18.497Z,92.00
2019-03-16T05:53:18.434Z,92.00
2019-03-16T05:54:18.393Z,92.00
2019-03-16T05:55:18.343Z,132.00
2019-03-16T05:56:18.294Z,184.00
2019-03-16T05:57:18.287Z,212.00
2019-03-16T05:58:18.218Z,236.00
2019-03-16T05:59:18.175Z,228.00
2019-03-16T06:00:18.142Z,232.00
2019-03-16T06:01:18.084Z,256.00
2019-03-16T06:02:18.089Z,244.00
2019-03-16T06:03:17.991Z,232.00
2019-03-16T06:04:17.945Z,216.00
2019-03-16T06:05:17.933Z,228.00
2019-03-16T06:06:17.878Z,264.00
2019-03-16T06:07:17.869Z,288.00
2019-03-16T06:08:17.786Z,304.00
2019-03-16T06:09:17.731Z,288.00
2019-03-16T06:10:17.705Z,268.00
2019-03-16T06:11:17.667Z,336.00
2019-03-16T06:12:17.614Z,340.00
2019-03-16T06:13:17.594Z,416.00
2019-03-16T06:14:17.524Z,448.00
2019-03-16T06:15:17.500Z,392.00
2019-03-16T06:16:17.434Z,400.00
2019-03-16T06:17:17.390Z,484.00
2019-03-16T06:18:17.340Z,612.00
2019-03-16T06:19:17.317Z,644.00
2019-03-16T06:20:17.298Z,688.00
2019-03-16T06:21:17.241Z,776.00
2019-03-16T06:22:17.197Z,784.00
2019-03-16T06:23:17.138Z,752.00
2019-03-16T06:24:17.084Z,748.00
2019-03-16T06:25:17.072Z,720.00
2019-03-16T06:26:17.004Z,744.00
2019-03-16T06:27:16.957Z,768.00
2019-03-16T06:28:16.924Z,672.00
2019-03-16T06:29:16.910Z,600.00
2019-03-16T06:30:16.825Z,584.00
2019-03-16T06:31:16.790Z,624.00
2019-03-16T06:32:16.745Z,608.00
2019-03-16T06:33:16.701Z,580.00
2019-03-16T06:34:16.705Z,520.00
2019-03-16T06:35:24.551Z,524.00
2019-03-16T06:36:16.571Z,480.00
2019-03-16T06:37:16.536Z,548.00
2019-03-16T06:38:16.500Z,680.00
2019-03-16T06:39:16.484Z,792.00
2019-03-16T06:40:16.405Z,824.00
2019-03-16T06:41:16.380Z,744.00
2019-03-16T06:42:16.327Z,748.00
2019-03-16T06:43:16.294Z,780.00
2019-03-16T06:44:16.239Z,760.00
2019-03-16T06:45:16.207Z,784.00
2019-03-16T06:46:16.143Z,860.00
2019-03-16T06:47:16.097Z,736.00
2019-03-16T06:48:16.075Z,796.00
2019-03-16T06:49:16.029Z,824.00
2019-03-16T06:50:16.061Z,848.00
2019-03-16T06:51:15.937Z,872.00
2019-03-16T06:52:15.901Z,984.00
2019-03-16T06:53:15.854Z,1120.00
2019-03-16T06:54:15.812Z,1340.00
2019-03-16T06:55:15.770Z,1472.00
2019-03-16T06:56:15.710Z,2020.00
2019-03-16T06:57:15.679Z,1832.00
2019-03-16T06:58:15.629Z,1420.00
2019-03-16T06:59:15.576Z,1104.00
2019-03-16T07:00:15.561Z,968.00
2019-03-16T07:01:15.532Z,1132.00
2019-03-16T07:02:15.454Z,1624.00
2019-03-16T07:03:15.429Z,1696.00
2019-03-16T07:04:15.381Z,1440.00
2019-03-16T07:05:15.326Z,1484.00
2019-03-16T07:06:15.296Z,1364.00
2019-03-16T07:07:15.236Z,1316.00
2019-03-16T07:08:15.186Z,1540.00
2019-03-16T07:09:15.130Z,2016.00
2019-03-16T07:10:15.096Z,2176.00
2019-03-16T07:11:15.082Z,2164.00
2019-03-16T07:12:15.018Z,2348.00
2019-03-16T07:13:14.966Z,3000.00
2019-03-16T07:14:14.933Z,3564.00
2019-03-16T07:15:14.922Z,3212.00
2019-03-16T07:16:14.845Z,3740.00
2019-03-16T07:17:14.830Z,4444.00
2019-03-16T07:18:14.782Z,4640.00
2019-03-16T07:19:14.719Z,5072.00
2019-03-16T07:20:14.695Z,5420.00
2019-03-16T07:21:14.627Z,6040.00
2019-03-16T07:22:14.594Z,5568.00
2019-03-16T07:23:14.604Z,5504.00
2019-03-16T07:24:14.515Z,5036.00
2019-03-16T07:25:14.458Z,4632.00
2019-03-16T07:26:15.380Z,4876.00
2019-03-16T07:27:25.692Z,3612.00
2019-03-16T07:28:14.356Z,4356.00
2019-03-16T07:29:14.287Z,4264.00
2019-03-16T07:30:14.241Z,4128.00
2019-03-16T07:31:14.191Z,4420.00
2019-03-16T07:32:14.148Z,4136.00
2019-03-16T07:33:14.126Z,4708.00
2019-03-16T07:34:14.059Z,4720.00
2019-03-16T07:35:14.026Z,5132.00
2019-03-16T07:36:13.983Z,4316.00
2019-03-16T07:37:13.942Z,3240.00
2019-03-16T07:38:13.922Z,2552.00
2019-03-16T07:39:13.844Z,3660.00
2019-03-16T07:40:13.817Z,2816.00
2019-03-16T07:41:13.797Z,3172.00
2019-03-16T07:42:13.721Z,3224.00
2019-03-16T07:43:13.753Z,3320.00
2019-03-16T07:44:13.637Z,3032.00
2019-03-16T07:45:13.606Z,3300.00
2019-03-16T07:46:13.569Z,4752.00
2019-03-16T07:47:13.510Z,4336.00
2019-03-16T07:48:13.463Z,4012.00
2019-03-16T07:49:13.452Z,3844.00
2019-03-16T07:50:13.378Z,3448.00
2019-03-16T07:51:13.347Z,3368.00
2019-03-16T07:52:13.301Z,3744.00
2019-03-16T07:53:13.282Z,3064.00
2019-03-16T07:54:13.241Z,2720.00
2019-03-16T07:55:13.182Z,2340.00
2019-03-16T07:56:13.140Z,4016.00
2019-03-16T07:57:13.103Z,4520.00
2019-03-16T07:58:13.083Z,7056.00
2019-03-16T07:59:13.124Z,5760.00
2019-03-16T08:00:12.972Z,5624.00
2019-03-16T08:01:12.953Z,7356.00
2019-03-16T08:02:12.893Z,7140.00
2019-03-16T08:03:12.827Z,8372.00
2019-03-16T08:04:12.810Z,8400.00
2019-03-16T08:05:18.494Z,7936.00
2019-03-16T08:06:12.701Z,8796.00
2019-03-16T08:07:12.678Z,8568.00
2019-03-16T08:08:12.627Z,8600.00
2019-03-16T08:09:12.705Z,8628.00
2019-03-16T08:10:12.559Z,8788.00
2019-03-16T08:11:12.506Z,6872.00
2019-03-16T08:12:12.461Z,6424.00
2019-03-16T08:13:12.475Z,7596.00
2019-03-16T08:14:12.431Z,6396.00
2019-03-16T08:15:12.331Z,5516.00
2019-03-16T08:16:12.312Z,7068.00
2019-03-16T08:17:12.248Z,6224.00
2019-03-16T08:18:12.254Z,5368.00
2019-03-16T08:19:12.166Z,6344.00
2019-03-16T08:20:12.145Z,5284.00
2019-03-16T08:21:12.115Z,4152.00
2019-03-16T08:22:12.047Z,4440.00
2019-03-16T08:23:12.041Z,3564.00
2019-03-16T08:24:11.950Z,4524.00
2019-03-16T08:25:11.920Z,5740.00
2019-03-16T08:26:11.907Z,5336.00
2019-03-16T08:27:11.836Z,5524.00
2019-03-16T08:28:11.834Z,5144.00
2019-03-16T08:29:11.793Z,5648.00
2019-03-16T08:30:11.776Z,4888.00
2019-03-16T08:31:11.662Z,3392.00
2019-03-16T08:32:11.628Z,2684.00
2019-03-16T08:33:11.621Z,1992.00
2019-03-16T08:34:11.546Z,1820.00
2019-03-16T08:35:11.492Z,2324.00
2019-03-16T08:36:11.478Z,2796.00
2019-03-16T08:37:11.406Z,2768.00
2019-03-16T08:38:11.375Z,3580.00
2019-03-16T08:39:11.341Z,2492.00
2019-03-16T08:40:11.284Z,1764.00
2019-03-16T08:41:11.291Z,2420.00
2019-03-16T08:42:12.365Z,2280.00
2019-03-16T08:43:11.148Z,3256.00
2019-03-16T08:44:11.146Z,4720.00
2019-03-16T08:45:11.082Z,5300.00
2019-03-16T08:46:11.038Z,4308.00
2019-03-16T08:47:11.020Z,3840.00
2019-03-16T08:48:22.305Z,3472.00
2019-03-16T08:49:10.915Z,3188.00
2019-03-16T08:50:10.867Z,3448.00
2019-03-16T08:51:10.819Z,3964.00
2019-03-16T08:52:10.808Z,3264.00
2019-03-16T08:53:10.773Z,3588.00
2019-03-16T08:54:10.728Z,3744.00
2019-03-16T08:55:10.663Z,3972.00
2019-03-16T08:56:10.598Z,4140.00
2019-03-16T08:57:10.596Z,4620.00
2019-03-16T08:58:10.517Z,4408.00
2019-03-16T08:59:10.485Z,4684.00
2019-03-16T09:00:10.455Z,5004.00
2019-03-16T09:01:10.404Z,4544.00
2019-03-16T09:02:10.403Z,4644.00
2019-03-16T09:03:10.324Z,4492.00
2019-03-16T09:04:10.270Z,4092.00
2019-03-16T09:05:10.271Z,3796.00
2019-03-16T09:06:10.194Z,4608.00
2019-03-16T09:07:10.176Z,4452.00
2019-03-16T09:08:10.122Z,4596.00
2019-03-16T09:09:10.082Z,4216.00
2019-03-16T09:10:10.075Z,5028.00
2019-03-16T09:11:09.986Z,4388.00
2019-03-16T09:12:09.951Z,5936.00
2019-03-16T09:13:09.953Z,5608.00
2019-03-16T09:14:09.872Z,6084.00
2019-03-16T09:15:09.820Z,7756.00
2019-03-16T09:16:09.797Z,7948.00
2019-03-16T09:17:09.741Z,7052.00
2019-03-16T09:18:09.687Z,6024.00
2019-03-16T09:19:09.678Z,5444.00
2019-03-16T09:20:09.599Z,5076.00
2019-03-16T09:21:09.597Z,5476.00
2019-03-16T09:22:09.598Z,4804.00
2019-03-16T09:23:09.491Z,4560.00
2019-03-16T09:24:09.465Z,4108.00
2019-03-16T09:25:09.430Z,3412.00
2019-03-16T09:26:09.381Z,4288.00
2019-03-16T09:27:09.496Z,4196.00
2019-03-16T09:28:18.239Z,4592.00
2019-03-16T09:29:15.044Z,4928.00
2019-03-16T09:30:09.187Z,5008.00
2019-03-16T09:31:09.182Z,4912.00
2019-03-16T09:32:09.115Z,4660.00
2019-03-16T09:33:09.093Z,4800.00
2019-03-16T09:34:09.031Z,5740.00
2019-03-16T09:35:09.012Z,5680.00
2019-03-16T09:36:08.974Z,6212.00
2019-03-16T09:37:08.898Z,6088.00
2019-03-16T09:38:08.864Z,6864.00
2019-03-16T09:39:08.808Z,7448.00
2019-03-16T09:40:08.760Z,6804.00
2019-03-16T09:41:08.749Z,5768.00
2019-03-16T09:42:08.699Z,4960.00
2019-03-16T09:43:08.652Z,4224.00
2019-03-16T09:44:08.605Z,4144.00
2019-03-16T09:45:08.600Z,7100.00
2019-03-16T09:46:08.541Z,10412.00
2019-03-16T09:47:08.506Z,11376.00
2019-03-16T09:48:08.453Z,12784.00
2019-03-16T09:49:08.404Z,12452.00
2019-03-16T09:50:08.356Z,13124.00
2019-03-16T09:51:08.352Z,13396.00
2019-03-16T09:52:08.267Z,13260.00
2019-03-16T09:53:08.234Z,12368.00
2019-03-16T09:54:08.196Z,13432.00
2019-03-16T09:55:08.154Z,13936.00
2019-03-16T09:56:08.156Z,14804.00
2019-03-16T09:57:08.064Z,15040.00
2019-03-16T09:58:08.028Z,13196.00
2019-03-16T09:59:07.979Z,11640.00
2019-03-16T10:00:07.937Z,9760.00
2019-03-16T10:01:07.926Z,8132.00
2019-03-16T10:02:07.857Z,10156.00
2019-03-16T10:03:07.842Z,12116.00
2019-03-16T10:04:08.155Z,12808.00
2019-03-16T10:05:15.529Z,10120.00
2019-03-16T10:06:07.682Z,10112.00
2019-03-16T10:07:07.684Z,10632.00
2019-03-16T10:08:07.626Z,10752.00
2019-03-16T10:09:07.576Z,10296.00
2019-03-16T10:10:07.566Z,12800.00
2019-03-16T10:11:07.491Z,16940.00
2019-03-16T10:12:07.451Z,14524.00
2019-03-16T10:13:07.496Z,14512.00
2019-03-16T10:14:08.214Z,15488.00
2019-03-16T10:15:08.266Z,17044.00
2019-03-16T10:16:07.683Z,15984.00
2019-03-16T10:17:07.294Z,15464.00
2019-03-16T10:18:07.309Z,15396.00
2019-03-16T10:19:07.159Z,12396.00
2019-03-16T10:20:07.162Z,14164.00
2019-03-16T10:21:07.296Z,15540.00
2019-03-16T10:22:07.145Z,16156.00
2019-03-16T10:23:06.988Z,15704.00
2019-03-16T10:24:06.957Z,15284.00
2019-03-16T10:25:06.954Z,13008.00
2019-03-16T10:26:06.878Z,11620.00
2019-03-16T10:27:06.863Z,8460.00
2019-03-16T10:28:06.801Z,7588.00
2019-03-16T10:29:06.755Z,6964.00
2019-03-16T10:30:06.717Z,6368.00
2019-03-16T10:31:06.676Z,6260.00
2019-03-16T10:32:06.671Z,7700.00
2019-03-16T10:33:06.607Z,10792.00
2019-03-16T10:34:06.563Z,11464.00
2019-03-16T10:35:06.509Z,11740.00
2019-03-16T10:36:06.468Z,11128.00
2019-03-16T10:37:06.438Z,10644.00
2019-03-16T10:38:06.440Z,12428.00
2019-03-16T10:39:06.355Z,14208.00
2019-03-16T10:40:06.321Z,15920.00
2019-03-16T10:41:06.283Z,19104.00
2019-03-16T10:42:06.275Z,17360.00
2019-03-16T10:43:06.219Z,14136.00
2019-03-16T10:44:06.151Z,12164.00
2019-03-16T10:45:06.126Z,13732.00
2019-03-16T10:46:08.318Z,13296.00
2019-03-16T10:47:06.021Z,11820.00
2019-03-16T10:48:06.020Z,9568.00
2019-03-16T10:49:05.974Z,8980.00
2019-03-16T10:50:05.907Z,7480.00
2019-03-16T10:51:05.894Z,6508.00
2019-03-16T10:52:05.850Z,6936.00
2019-03-16T10:53:05.868Z,7300.00
2019-03-16T10:54:05.818Z,6672.00
2019-03-16T10:55:05.705Z,5516.00
2019-03-16T10:56:05.683Z,5720.00
2019-03-16T10:57:05.660Z,5980.00
2019-03-16T10:58:05.580Z,5060.00
2019-03-16T10:59:05.578Z,4848.00
2019-03-16T11:00:05.506Z,4864.00
2019-03-16T11:01:05.449Z,4196.00
2019-03-16T11:02:05.419Z,4136.00
2019-03-16T11:03:05.398Z,5860.00
2019-03-16T11:04:05.337Z,7668.00
2019-03-16T11:05:05.346Z,8628.00
2019-03-16T11:06:05.273Z,9744.00
2019-03-16T11:07:05.218Z,10992.00
2019-03-16T11:08:05.190Z,13304.00
2019-03-16T11:09:27.936Z,13180.00
2019-03-16T11:10:05.107Z,14688.00
2019-03-16T11:11:05.069Z,16600.00
2019-03-16T11:12:05.022Z,14868.00
2019-03-16T11:13:05.072Z,11692.00
2019-03-16T11:14:04.940Z,11392.00
2019-03-16T11:15:04.937Z,14860.00
2019-03-16T11:16:04.857Z,12916.00
2019-03-16T11:17:04.833Z,11760.00
2019-03-16T11:18:10.060Z,10888.00
2019-03-16T11:19:11.232Z,8528.00
2019-03-16T11:20:04.715Z,7032.00
2019-03-16T11:21:10.731Z,6076.00
2019-03-16T11:22:06.472Z,8976.00
2019-03-16T11:23:05.577Z,8412.00
2019-03-16T11:24:06.375Z,6976.00
2019-03-16T11:25:04.763Z,6576.00
2019-03-16T11:26:05.768Z,5760.00
2019-03-16T11:27:04.407Z,5272.00
2019-03-16T11:28:04.478Z,5736.00
2019-03-16T11:29:09.313Z,5880.00
2019-03-16T11:30:05.503Z,7052.00
2019-03-16T11:31:04.266Z,6480.00
2019-03-16T11:32:04.340Z,5800.00
2019-03-16T11:33:04.289Z,6364.00
2019-03-16T11:34:04.185Z,6352.00
2019-03-16T11:35:04.254Z,6244.00
2019-03-16T11:36:04.671Z,7512.00
2019-03-16T11:37:03.993Z,7964.00
2019-03-16T11:38:04.864Z,8864.00
2019-03-16T11:39:04.002Z,7324.00
2019-03-16T11:40:03.962Z,6664.00
2019-03-16T11:41:03.855Z,6420.00
2019-03-16T11:42:05.360Z,6544.00
2019-03-16T11:43:04.262Z,6364.00
2019-03-16T11:44:03.888Z,6040.00
2019-03-16T11:45:04.209Z,6044.00
2019-03-16T11:46:03.676Z,5748.00
2019-03-16T11:47:03.682Z,5612.00
2019-03-16T11:48:03.995Z,6116.00
2019-03-16T11:49:04.025Z,5984.00
2019-03-16T11:50:03.784Z,6028.00
2019-03-16T11:51:03.490Z,5452.00
2019-03-16T11:52:03.412Z,5012.00
2019-03-16T11:53:03.368Z,4720.00
2019-03-16T11:54:03.304Z,4504.00
2019-03-16T11:55:03.390Z,4312.00
2019-03-16T11:56:03.228Z,4284.00
2019-03-16T11:57:03.188Z,4400.00
2019-03-16T11:58:03.171Z,4092.00
2019-03-16T11:59:03.092Z,3664.00
2019-03-16T12:00:03.054Z,3368.00
2019-03-16T12:01:03.037Z,3440.00
2019-03-16T12:02:05.506Z,5332.00
2019-03-16T12:03:02.931Z,7052.00
2019-03-16T12:04:02.906Z,8028.00
2019-03-16T12:05:02.858Z,10948.00
2019-03-16T12:06:02.834Z,15916.00
2019-03-16T12:07:02.830Z,12140.00
2019-03-16T12:08:02.750Z,9664.00
2019-03-16T12:09:02.762Z,8608.00
2019-03-16T12:10:02.673Z,8008.00
2019-03-16T12:11:02.602Z,6968.00
2019-03-16T12:12:02.598Z,6324.00
2019-03-16T12:13:02.620Z,5256.00
2019-03-16T12:14:02.632Z,4820.00
2019-03-16T12:15:02.579Z,4376.00
2019-03-16T12:16:02.437Z,4248.00
2019-03-16T12:17:02.347Z,4004.00
2019-03-16T12:18:02.317Z,3864.00
2019-03-16T12:19:02.310Z,4036.00
2019-03-16T12:20:02.264Z,4248.00
2019-03-16T12:21:02.195Z,4372.00
2019-03-16T12:22:02.155Z,4500.00
2019-03-16T12:23:02.111Z,4228.00
2019-03-16T12:24:02.064Z,4044.00
2019-03-16T12:25:02.066Z,4540.00
2019-03-16T12:26:01.989Z,4980.00
2019-03-16T12:27:01.951Z,4512.00
2019-03-16T12:28:01.931Z,4960.00
2019-03-16T12:29:01.878Z,5764.00
2019-03-16T12:30:01.870Z,5764.00
2019-03-16T12:31:01.786Z,5772.00
2019-03-16T12:32:01.746Z,6476.00
2019-03-16T12:33:01.720Z,6524.00
2019-03-16T12:34:01.655Z,7608.00
2019-03-16T12:35:01.694Z,7096.00
2019-03-16T12:36:01.591Z,7096.00
2019-03-16T12:37:01.569Z,6736.00